createdAt,value
2018-03-19T00:01:01.979Z,100967.30
2018-03-19T00:03:28.261Z,100970.20
2018-03-19T00:05:54.323Z,100969.51
2018-03-19T00:08:20.380Z,100975.81
2018-03-19T00:10:46.412Z,100970.89
2018-03-19T00:13:12.502Z,100965.83
2018-03-19T00:15:38.572Z,100969.09
2018-03-19T00:18:04.631Z,100966.02
2018-03-19T00:20:30.661Z,100966.55
2018-03-19T00:22:56.879Z,100960.45
2018-03-19T00:25:22.937Z,100967.00
2018-03-19T00:27:48.997Z,100966.89
2018-03-19T00:30:15.183Z,100958.42
2018-03-19T00:32:41.228Z,100957.27
2018-03-19T00:35:07.240Z,100956.63
2018-03-19T00:37:33.349Z,100955.60
2018-03-19T00:39:59.483Z,100955.22
2018-03-19T00:42:25.593Z,100954.91
2018-03-19T00:44:52.195Z,100952.02
2018-03-19T00:47:18.254Z,100954.97
2018-03-19T00:49:44.364Z,100952.09
2018-03-19T00:52:10.456Z,100958.56
2018-03-19T00:54:36.547Z,100957.61
2018-03-19T00:57:02.596Z,100956.76
2018-03-19T00:59:28.630Z,100949.17
2018-03-19T01:01:54.707Z,100950.94
2018-03-19T01:04:20.808Z,100949.53
2018-03-19T01:06:46.879Z,100947.82
2018-03-19T01:09:12.955Z,100946.54
2018-03-19T01:11:39.010Z,100942.25
2018-03-19T01:14:05.066Z,100948.27
2018-03-19T01:16:31.100Z,100947.74
2018-03-19T01:18:57.325Z,100958.70
2018-03-19T01:21:23.351Z,100952.16
2018-03-19T01:23:49.462Z,100951.55
2018-03-19T01:26:15.508Z,100949.05
2018-03-19T01:28:41.734Z,100946.37
2018-03-19T01:31:07.773Z,100949.74
2018-03-19T01:33:33.825Z,100940.58
2018-03-19T01:35:59.897Z,100938.14
2018-03-19T01:38:25.941Z,100939.63
2018-03-19T01:40:52.031Z,100942.27
2018-03-19T01:43:18.179Z,100940.13
2018-03-19T01:45:44.283Z,100932.02
2018-03-19T01:48:10.396Z,100929.33
2018-03-19T01:50:36.545Z,100932.28
2018-03-19T01:53:02.557Z,100918.56
2018-03-19T01:55:28.632Z,100924.52
2018-03-19T01:57:54.725Z,100920.55
2018-03-19T02:00:20.862Z,100917.05
2018-03-19T02:02:46.907Z,100918.77
2018-03-19T02:05:12.944Z,100911.46
2018-03-19T02:07:39.935Z,100915.81
2018-03-19T02:10:06.004Z,100914.02
2018-03-19T02:12:32.104Z,100917.61
2018-03-19T02:14:58.123Z,100916.51
2018-03-19T02:17:24.253Z,100915.76
2018-03-19T02:19:50.322Z,100917.54
2018-03-19T02:22:16.360Z,100913.20
2018-03-19T02:24:42.406Z,100912.11
2018-03-19T02:27:08.430Z,100909.09
2018-03-19T02:29:34.526Z,100906.59
2018-03-19T02:32:00.544Z,100910.74
2018-03-19T02:34:26.610Z,100916.13
2018-03-19T02:36:52.637Z,100913.25
2018-03-19T02:39:18.717Z,100911.16
2018-03-19T02:41:44.797Z,100915.30
2018-03-19T02:44:10.819Z,100911.84
2018-03-19T02:46:36.928Z,100915.98
2018-03-19T02:49:02.991Z,100910.83
2018-03-19T02:51:29.261Z,100915.56
2018-03-19T02:53:55.282Z,100915.30
2018-03-19T02:56:21.366Z,100915.47
2018-03-19T02:58:47.436Z,100918.27
2018-03-19T03:01:13.515Z,100922.88
2018-03-19T03:03:39.581Z,100919.08
2018-03-19T03:06:05.622Z,100918.19
2018-03-19T03:08:31.640Z,100920.58
2018-03-19T03:10:57.705Z,100924.02
2018-03-19T03:13:23.778Z,100922.73
2018-03-19T03:15:49.959Z,100922.92
2018-03-19T03:18:16.069Z,100924.97
2018-03-19T03:20:42.126Z,100924.21
2018-03-19T03:23:08.423Z,100928.41
2018-03-19T03:25:34.455Z,100926.62
2018-03-19T03:28:00.520Z,100927.89
2018-03-19T03:30:26.572Z,100934.29
2018-03-19T03:32:52.626Z,100926.37
2018-03-19T03:35:19.696Z,100931.58
2018-03-19T03:37:45.783Z,100932.03
2018-03-19T03:40:11.842Z,100935.94
2018-03-19T03:42:37.874Z,100929.86
2018-03-19T03:45:03.952Z,100939.19
2018-03-19T03:47:30.004Z,100934.75
2018-03-19T03:49:56.223Z,100937.70
2018-03-19T03:52:22.291Z,100932.59
2018-03-19T03:54:48.365Z,100941.14
2018-03-19T03:57:14.594Z,100940.69
2018-03-19T03:59:40.636Z,100937.84
2018-03-19T04:02:06.668Z,100933.91
2018-03-19T04:04:32.699Z,100943.86
2018-03-19T04:06:58.807Z,100942.13
2018-03-19T04:12:18.071Z,100942.34
2018-03-19T04:14:44.142Z,100940.56
2018-03-19T04:17:10.195Z,100943.88
2018-03-19T04:19:36.270Z,100949.34
2018-03-19T04:22:02.351Z,100945.37
2018-03-19T04:24:28.459Z,100950.30
2018-03-19T04:26:54.510Z,100942.55
2018-03-19T04:29:20.571Z,100946.23
2018-03-19T04:31:46.606Z,100954.94
2018-03-19T04:34:12.634Z,100952.03
2018-03-19T04:36:38.753Z,100964.06
2018-03-19T04:39:04.819Z,100957.36
2018-03-19T04:41:30.888Z,100960.17
2018-03-19T04:43:56.941Z,100952.88
2018-03-19T04:46:23.066Z,100961.30
2018-03-19T04:48:49.170Z,100954.45
2018-03-19T04:51:15.264Z,100960.83
2018-03-19T04:53:41.442Z,100959.50
2018-03-19T04:56:07.472Z,100958.73
2018-03-19T04:58:33.558Z,100962.73
2018-03-19T05:00:59.744Z,100961.05
2018-03-19T05:03:25.829Z,100957.02
2018-03-19T05:05:51.884Z,100962.50
2018-03-19T05:08:17.960Z,100967.37
2018-03-19T05:10:44.064Z,100966.33
2018-03-19T05:13:10.190Z,100968.81
2018-03-19T05:15:36.277Z,100960.02
2018-03-19T05:18:02.338Z,100970.56
2018-03-19T05:20:28.690Z,100974.38
2018-03-19T05:22:54.723Z,100968.34
2018-03-19T05:25:21.023Z,100970.77
2018-03-19T05:27:47.090Z,100975.13
2018-03-19T05:30:13.106Z,100980.23
2018-03-19T05:32:39.225Z,100976.27
2018-03-19T05:35:05.306Z,100978.05
2018-03-19T05:37:31.376Z,100974.23
2018-03-19T05:39:57.425Z,100978.45
2018-03-19T05:42:23.675Z,100980.38
2018-03-19T05:44:49.749Z,100976.57
2018-03-19T05:47:15.893Z,100984.58
2018-03-19T05:49:41.968Z,100979.41
2018-03-19T05:52:08.111Z,100978.59
2018-03-19T05:54:34.155Z,100979.87
2018-03-19T05:57:00.246Z,100989.39
2018-03-19T05:59:26.494Z,100994.59
2018-03-19T06:01:52.565Z,100988.86
2018-03-19T06:04:18.643Z,100988.44
2018-03-19T06:06:44.713Z,100992.80
2018-03-19T06:09:10.797Z,100999.03
2018-03-19T06:11:36.903Z,100997.86
2018-03-19T06:14:03.006Z,100998.41
2018-03-19T06:16:29.052Z,101008.33
2018-03-19T06:18:55.123Z,101007.47
2018-03-19T06:21:21.199Z,101011.75
2018-03-19T06:23:47.230Z,101011.62
2018-03-19T06:26:13.314Z,101017.33
2018-03-19T06:28:39.352Z,101017.98
2018-03-19T06:31:05.667Z,101012.50
2018-03-19T06:33:32.370Z,101012.86
2018-03-19T06:35:58.423Z,101021.34
2018-03-19T06:38:24.606Z,101023.34
2018-03-19T06:40:50.711Z,101015.61
2018-03-19T06:43:16.755Z,101022.70
2018-03-19T06:45:42.890Z,101029.23
2018-03-19T06:48:08.989Z,101024.83
2018-03-19T06:50:35.024Z,101026.34
2018-03-19T06:53:01.061Z,101031.77
2018-03-19T06:55:27.111Z,101025.51
2018-03-19T06:57:53.196Z,101035.77
2018-03-19T07:00:19.227Z,101029.70
2018-03-19T07:02:45.281Z,101032.98
2018-03-19T07:05:11.498Z,101029.41
2018-03-19T07:07:37.560Z,101025.13
2018-03-19T07:10:03.631Z,101031.54
2018-03-19T07:12:29.687Z,101028.28
2018-03-19T07:14:55.738Z,101034.36
2018-03-19T07:17:21.772Z,101024.20
2018-03-19T07:19:47.829Z,101031.33
2018-03-19T07:22:13.872Z,101025.25
2018-03-19T07:24:39.932Z,101019.41
2018-03-19T07:27:06.208Z,101023.14
2018-03-19T07:29:32.225Z,101020.58
2018-03-19T07:31:58.268Z,101021.22
2018-03-19T07:34:24.337Z,101020.11
2018-03-19T07:36:50.628Z,101012.57
2018-03-19T07:39:16.699Z,101014.80
2018-03-19T07:41:42.858Z,101014.66
2018-03-19T07:44:08.947Z,101005.38
2018-03-19T07:46:34.995Z,101010.34
2018-03-19T07:49:01.142Z,101009.66
2018-03-19T07:51:27.190Z,101008.22
2018-03-19T07:53:53.447Z,101010.51
2018-03-19T07:56:19.471Z,101015.77
2018-03-19T07:58:45.475Z,101017.23
2018-03-19T08:01:11.556Z,101020.03
2018-03-19T08:03:37.778Z,101022.31
2018-03-19T08:06:03.944Z,101017.81
2018-03-19T08:08:30.017Z,101024.69
2018-03-19T08:10:56.133Z,101025.23
2018-03-19T08:13:22.214Z,101015.80
2018-03-19T08:15:48.431Z,101022.39
2018-03-19T08:18:14.462Z,101028.61
2018-03-19T08:20:40.502Z,101022.31
2018-03-19T08:23:06.552Z,101027.39
2018-03-19T08:25:32.606Z,101024.59
2018-03-19T08:27:58.860Z,101025.33
2018-03-19T08:30:24.912Z,101025.77
2018-03-19T08:32:50.995Z,101024.64
2018-03-19T08:35:17.101Z,101030.73
2018-03-19T08:37:43.143Z,101017.89
2018-03-19T08:40:09.208Z,101024.13
2018-03-19T08:42:35.292Z,101023.63
2018-03-19T08:45:01.392Z,101024.97
2018-03-19T08:47:27.444Z,101031.28
2018-03-19T08:49:53.616Z,101030.53
2018-03-19T08:52:19.718Z,101028.58
2018-03-19T08:54:45.723Z,101019.44
2018-03-19T08:57:11.927Z,101018.84
2018-03-19T08:59:37.980Z,101005.80
2018-03-19T09:02:04.280Z,101006.84
2018-03-19T09:04:30.311Z,101016.78
2018-03-19T09:06:56.543Z,101010.85
2018-03-19T09:09:22.662Z,101014.81
2018-03-19T09:11:48.708Z,101014.07
2018-03-19T09:14:14.771Z,101011.59
2018-03-19T09:16:40.838Z,101010.01
2018-03-19T09:19:06.888Z,101015.50
2018-03-19T09:21:32.922Z,101014.16
2018-03-19T09:23:58.953Z,101007.20
2018-03-19T09:26:25.036Z,101010.20
2018-03-19T09:28:51.107Z,101006.98
2018-03-19T09:31:17.159Z,101003.64
2018-03-19T09:33:43.257Z,101004.06
2018-03-19T09:36:09.350Z,101002.20
2018-03-19T09:38:35.439Z,100997.89
2018-03-19T09:41:01.484Z,101006.27
2018-03-19T09:43:27.693Z,101005.79
2018-03-19T09:45:53.718Z,100996.08
2018-03-19T09:48:19.808Z,100998.83
2018-03-19T09:50:45.897Z,100995.59
2018-03-19T09:53:11.926Z,100992.05
2018-03-19T09:55:37.980Z,100993.58
2018-03-19T09:58:04.001Z,100999.33
2018-03-19T10:00:30.175Z,100997.88
2018-03-19T10:02:56.194Z,100997.19
2018-03-19T10:05:22.227Z,100993.66
2018-03-19T10:07:48.481Z,100996.59
2018-03-19T10:10:14.643Z,100992.33
2018-03-19T10:12:40.922Z,100989.78
2018-03-19T10:15:06.977Z,101000.13
2018-03-19T10:17:33.030Z,100984.03
2018-03-19T10:19:59.271Z,100983.89
2018-03-19T10:22:25.301Z,100986.14
2018-03-19T10:24:51.432Z,100979.70
2018-03-19T10:27:17.518Z,100981.31
2018-03-19T10:29:43.547Z,100968.73
2018-03-19T10:32:09.591Z,100968.25
2018-03-19T10:34:35.688Z,100969.34
2018-03-19T10:37:01.740Z,100964.27
2018-03-19T10:39:27.865Z,100967.97
2018-03-19T10:41:53.911Z,100963.03
2018-03-19T10:44:19.985Z,100962.84
2018-03-19T10:46:46.133Z,100959.23
2018-03-19T10:49:12.271Z,100953.78
2018-03-19T10:51:38.346Z,100951.66
2018-03-19T10:54:04.377Z,100947.41
2018-03-19T10:56:30.471Z,100945.52
2018-03-19T10:58:56.495Z,100948.64
2018-03-19T11:01:28.522Z,100944.61
2018-03-19T11:04:00.422Z,100930.97
2018-03-19T11:06:32.624Z,100926.45
2018-03-19T11:09:04.624Z,100931.69
2018-03-19T11:11:30.983Z,100925.85
2018-03-19T11:13:57.063Z,100921.28
2018-03-19T11:16:23.095Z,100917.63
2018-03-19T11:18:49.152Z,100906.60
2018-03-19T11:21:15.219Z,100909.34
2018-03-19T11:23:41.416Z,100896.22
2018-03-19T11:26:07.479Z,100894.60
2018-03-19T11:28:33.602Z,100890.95
2018-03-19T11:30:59.839Z,100888.88
2018-03-19T11:33:25.969Z,100889.81
2018-03-19T11:35:52.065Z,100880.25
2018-03-19T11:38:18.398Z,100884.13
2018-03-19T11:40:44.467Z,100881.08
2018-03-19T11:43:10.695Z,100874.53
2018-03-19T11:45:36.722Z,100875.61
2018-03-19T11:48:02.960Z,100877.70
2018-03-19T11:50:29.068Z,100866.31
2018-03-19T11:52:55.180Z,100863.44
2018-03-19T11:55:21.648Z,100864.99
2018-03-19T11:57:47.733Z,100862.97
2018-03-19T12:00:13.782Z,100857.63
2018-03-19T12:02:39.843Z,100862.33
2018-03-19T12:05:05.935Z,100851.73
2018-03-19T12:07:32.191Z,100850.07
2018-03-19T12:09:58.276Z,100848.13
2018-03-19T12:12:24.336Z,100848.70
2018-03-19T12:14:50.512Z,100836.47
2018-03-19T12:17:16.552Z,100843.54
2018-03-19T12:19:42.587Z,100836.54
2018-03-19T12:22:08.689Z,100834.73
2018-03-19T12:24:34.787Z,100836.69
2018-03-19T12:27:00.864Z,100838.56
2018-03-19T12:29:26.923Z,100830.02
2018-03-19T12:31:53.007Z,100820.08
2018-03-19T12:34:19.078Z,100827.53
2018-03-19T12:36:45.124Z,100816.93
2018-03-19T12:39:11.778Z,100816.87
2018-03-19T12:41:37.862Z,100815.28
2018-03-19T12:44:03.929Z,100812.69
2018-03-19T12:46:29.960Z,100801.59
2018-03-19T12:48:56.031Z,100803.78
2018-03-19T12:51:23.030Z,100806.61
2018-03-19T12:53:49.139Z,100797.64
2018-03-19T12:56:15.216Z,100806.78
2018-03-19T13:01:34.420Z,100800.80
2018-03-19T13:04:00.493Z,100790.78
2018-03-19T13:06:26.532Z,100792.63
2018-03-19T13:08:52.618Z,100790.05
2018-03-19T13:11:18.687Z,100788.97
2018-03-19T13:13:44.756Z,100785.56
2018-03-19T13:16:10.809Z,100784.53
2018-03-19T13:18:36.892Z,100775.48
2018-03-19T13:21:03.083Z,100781.48
2018-03-19T13:23:29.180Z,100775.31
2018-03-19T13:25:55.276Z,100772.50
2018-03-19T13:28:21.332Z,100781.48
2018-03-19T13:30:47.384Z,100775.27
2018-03-19T13:33:13.592Z,100780.19
2018-03-19T13:35:39.628Z,100779.31
2018-03-19T13:38:05.905Z,100781.91
2018-03-19T13:40:32.011Z,100778.25
2018-03-19T13:42:58.186Z,100776.20
2018-03-19T13:45:24.466Z,100782.99
2018-03-19T13:47:50.546Z,100784.36
2018-03-19T13:50:16.591Z,100768.27
2018-03-19T13:52:42.650Z,100771.08
2018-03-19T13:55:08.897Z,100768.26
2018-03-19T13:57:34.928Z,100765.88
2018-03-19T14:00:01.216Z,100768.38
2018-03-19T14:02:27.302Z,100762.40
2018-03-19T14:04:53.340Z,100760.01
2018-03-19T14:07:19.426Z,100749.27
2018-03-19T14:09:45.457Z,100756.62
2018-03-19T14:12:11.548Z,100765.55
2018-03-19T14:14:37.592Z,100757.56
2018-03-19T14:17:03.774Z,100746.84
2018-03-19T14:19:29.819Z,100746.31
2018-03-19T14:21:56.096Z,100741.53
2018-03-19T14:24:22.193Z,100744.33
2018-03-19T14:26:48.372Z,100735.42
2018-03-19T14:29:14.422Z,100720.98
2018-03-19T14:31:40.471Z,100718.04
2018-03-19T14:34:06.653Z,100722.30
2018-03-19T14:36:32.765Z,100714.25
2018-03-19T14:38:58.896Z,100714.54
2018-03-19T14:41:25.037Z,100712.11
2018-03-19T14:43:51.121Z,100729.80
2018-03-19T14:46:17.196Z,100714.47
2018-03-19T14:48:43.281Z,100718.24
2018-03-19T14:51:09.440Z,100718.44
2018-03-19T14:53:35.499Z,100720.24
2018-03-19T14:56:01.527Z,100718.92
2018-03-19T14:58:27.604Z,100705.26
2018-03-19T15:00:53.643Z,100705.10
2018-03-19T15:03:19.770Z,100702.79
2018-03-19T15:05:45.874Z,100708.48
2018-03-19T15:08:11.984Z,100696.64
2018-03-19T15:10:38.131Z,100702.63
2018-03-19T15:13:04.426Z,100708.31
2018-03-19T15:15:30.487Z,100708.44
2018-03-19T15:17:56.671Z,100704.67
2018-03-19T15:20:22.727Z,100700.34
2018-03-19T15:22:48.751Z,100703.36
2018-03-19T15:25:14.903Z,100705.64
2018-03-19T15:27:40.947Z,100696.04
2018-03-19T15:30:07.018Z,100694.08
2018-03-19T15:32:33.065Z,100704.65
2018-03-19T15:34:59.134Z,100705.92
2018-03-19T15:37:25.307Z,100706.18
2018-03-19T15:39:51.337Z,100710.08
2018-03-19T15:42:17.436Z,100699.39
2018-03-19T15:44:43.469Z,100703.05
2018-03-19T15:47:09.595Z,100702.48
2018-03-19T15:49:35.631Z,100694.86
2018-03-19T15:52:01.760Z,100696.17
2018-03-19T15:54:27.932Z,100703.45
2018-03-19T15:56:54.476Z,100691.41
2018-03-19T15:59:20.572Z,100694.66
2018-03-19T16:01:46.807Z,100691.89
2018-03-19T16:04:12.865Z,100695.44
2018-03-19T16:06:38.923Z,100694.55
2018-03-19T16:09:05.071Z,100694.70
2018-03-19T16:11:31.248Z,100696.92
2018-03-19T16:13:57.295Z,100696.86
2018-03-19T16:16:23.356Z,100690.45
2018-03-19T16:18:49.420Z,100695.08
2018-03-19T16:21:15.469Z,100696.11
2018-03-19T16:23:41.503Z,100702.01
2018-03-19T16:26:07.763Z,100701.33
2018-03-19T16:28:33.911Z,100698.37
2018-03-19T16:31:00.258Z,100702.72
2018-03-19T16:33:26.279Z,100705.33
2018-03-19T16:35:52.332Z,100701.52
2018-03-19T16:38:18.414Z,100701.15
2018-03-19T16:40:44.700Z,100703.73
2018-03-19T16:43:10.794Z,100708.06
2018-03-19T16:45:36.836Z,100714.14
2018-03-19T16:48:02.922Z,100711.11
2018-03-19T16:50:28.989Z,100710.64
2018-03-19T16:52:55.076Z,100710.20
2018-03-19T16:55:21.166Z,100708.89
2018-03-19T16:57:47.211Z,100718.34
2018-03-19T17:00:13.314Z,100706.67
2018-03-19T17:02:39.393Z,100715.28
2018-03-19T17:05:05.555Z,100724.31
2018-03-19T17:07:31.675Z,100724.72
2018-03-19T17:09:57.758Z,100721.23
2018-03-19T17:12:23.847Z,100723.80
2018-03-19T17:14:49.995Z,100726.77
2018-03-19T17:17:16.075Z,100718.57
2018-03-19T17:19:42.354Z,100723.25
2018-03-19T17:22:08.417Z,100730.94
2018-03-19T17:24:34.442Z,100735.66
2018-03-19T17:27:00.531Z,100734.68
2018-03-19T17:29:26.587Z,100733.75
2018-03-19T17:31:52.664Z,100731.09
2018-03-19T17:34:18.722Z,100740.06
2018-03-19T17:36:44.802Z,100741.75
2018-03-19T17:39:11.039Z,100739.48
2018-03-19T17:41:37.920Z,100744.18
2018-03-19T17:44:03.971Z,100752.23
2018-03-19T17:46:30.052Z,100748.19
2018-03-19T17:48:56.085Z,100742.09
2018-03-19T17:51:22.378Z,100741.98
2018-03-19T17:53:48.462Z,100750.12
2018-03-19T17:56:14.504Z,100752.92
2018-03-19T17:58:40.714Z,100754.12
2018-03-19T18:01:06.870Z,100757.83
2018-03-19T18:03:32.978Z,100766.20
2018-03-19T18:05:59.046Z,100766.55
2018-03-19T18:08:25.171Z,100769.41
2018-03-19T18:10:51.236Z,100773.17
2018-03-19T18:13:17.364Z,100775.22
2018-03-19T18:15:43.469Z,100778.52
2018-03-19T18:18:09.734Z,100786.11
2018-03-19T18:20:35.853Z,100785.58
2018-03-19T18:23:01.898Z,100782.13
2018-03-19T18:25:28.029Z,100781.21
2018-03-19T18:27:54.098Z,100777.73
2018-03-19T18:30:20.142Z,100779.42
2018-03-19T18:32:46.176Z,100784.48
2018-03-19T18:35:12.228Z,100789.62
2018-03-19T18:37:38.401Z,100792.95
2018-03-19T18:40:04.753Z,100788.98
2018-03-19T18:42:30.796Z,100802.22
2018-03-19T18:44:56.882Z,100791.03
2018-03-19T18:47:22.941Z,100794.80
2018-03-19T18:49:49.032Z,100790.83
2018-03-19T18:52:15.646Z,100792.91
2018-03-19T18:54:41.717Z,100792.83
2018-03-19T18:57:07.794Z,100793.72
2018-03-19T18:59:33.891Z,100798.33
2018-03-19T19:01:59.972Z,100799.84
2018-03-19T19:04:26.602Z,100803.37
2018-03-19T19:06:52.660Z,100805.88
2018-03-19T19:09:18.743Z,100795.95
2018-03-19T19:11:44.784Z,100799.34
2018-03-19T19:14:10.874Z,100800.11
2018-03-19T19:16:36.934Z,100801.70
2018-03-19T19:19:02.979Z,100800.34
2018-03-19T19:21:30.127Z,100804.97
2018-03-19T19:23:56.203Z,100801.92
2018-03-19T19:26:22.287Z,100806.08
2018-03-19T19:28:48.369Z,100806.08
2018-03-19T19:31:14.630Z,100810.30
2018-03-19T19:33:40.755Z,100802.47
2018-03-19T19:36:06.992Z,100809.27
2018-03-19T19:38:33.127Z,100807.94
2018-03-19T19:40:59.412Z,100813.90
2018-03-19T19:43:25.592Z,100820.22
2018-03-19T19:45:51.695Z,100814.18
2018-03-19T19:48:17.765Z,100818.48
2018-03-19T19:50:43.965Z,100808.52
2018-03-19T19:53:10.046Z,100817.89
2018-03-19T19:55:36.449Z,100814.88
2018-03-19T19:58:18.162Z,100817.36
2018-03-19T20:00:44.295Z,100810.48
2018-03-19T20:03:10.574Z,100818.84
2018-03-19T20:05:36.686Z,100822.14
2018-03-19T20:08:02.782Z,100810.64
2018-03-19T20:10:29.200Z,100816.11
2018-03-19T20:12:55.288Z,100812.09
2018-03-19T20:15:21.378Z,100812.72
2018-03-19T20:17:47.483Z,100810.51
2018-03-19T20:20:14.625Z,100811.75
2018-03-19T20:22:40.750Z,100812.19
2018-03-19T20:25:06.951Z,100812.91
2018-03-19T20:27:33.081Z,100804.31
2018-03-19T20:29:59.337Z,100806.18
2018-03-19T20:32:25.409Z,100809.58
2018-03-19T20:34:51.496Z,100806.94
2018-03-19T20:37:17.655Z,100807.02
2018-03-19T20:39:43.935Z,100807.38
2018-03-19T20:42:09.987Z,100811.62
2018-03-19T20:44:36.232Z,100805.02
2018-03-19T20:47:02.726Z,100809.23
2018-03-19T20:49:29.805Z,100807.81
2018-03-19T20:51:56.281Z,100804.27
2018-03-19T20:54:22.416Z,100804.17
2018-03-19T20:56:48.475Z,100800.71
2018-03-19T20:59:14.551Z,100799.87
2018-03-19T21:01:41.382Z,100802.00
2018-03-19T21:04:07.528Z,100800.09
2018-03-19T21:06:33.608Z,100804.64
2018-03-19T21:08:59.895Z,100796.80
2018-03-19T21:11:26.083Z,100795.12
2018-03-19T21:13:52.248Z,100794.71
2018-03-19T21:16:19.254Z,100787.33
2018-03-19T21:18:45.443Z,100792.41
2018-03-19T21:21:11.579Z,100784.47
2018-03-19T21:23:37.712Z,100786.84
2018-03-19T21:26:03.938Z,100786.20
2018-03-19T21:28:30.180Z,100786.70
2018-03-19T21:30:56.531Z,100785.36
2018-03-19T21:33:22.755Z,100783.58
2018-03-19T21:35:48.872Z,100788.72
2018-03-19T21:38:15.025Z,100786.95
2018-03-19T21:40:41.092Z,100786.75
2018-03-19T21:43:07.162Z,100780.83
2018-03-19T21:45:33.311Z,100784.23
2018-03-19T21:47:59.422Z,100781.27
2018-03-19T21:50:25.515Z,100775.97
2018-03-19T21:53:06.825Z,100782.94
2018-03-19T21:55:32.996Z,100771.94
2018-03-19T21:57:59.033Z,100775.09
2018-03-19T22:00:40.011Z,100767.23
2018-03-19T22:03:06.174Z,100772.32
2018-03-19T22:05:32.216Z,100767.55
2018-03-19T22:07:58.404Z,100769.16
2018-03-19T22:10:24.405Z,100761.63
2018-03-19T22:12:50.485Z,100761.88
2018-03-19T22:15:16.555Z,100758.77
2018-03-19T22:17:42.712Z,100760.89
2018-03-19T22:20:08.734Z,100756.83
2018-03-19T22:22:35.028Z,100750.91
2018-03-19T22:25:01.081Z,100755.25
2018-03-19T22:27:27.125Z,100752.52
2018-03-19T22:29:53.342Z,100753.77
2018-03-19T22:32:19.489Z,100755.45
2018-03-19T22:34:45.639Z,100754.56
2018-03-19T22:37:11.664Z,100760.27
2018-03-19T22:39:37.724Z,100754.38
2018-03-19T22:42:03.849Z,100751.80
2018-03-19T22:44:29.901Z,100748.20
2018-03-19T22:46:55.940Z,100746.33
2018-03-19T22:49:22.045Z,100746.63
2018-03-19T22:51:48.129Z,100744.75
2018-03-19T22:54:14.181Z,100743.66
2018-03-19T22:56:40.461Z,100739.17
2018-03-19T22:59:06.544Z,100734.83
2018-03-19T23:01:32.856Z,100736.02
2018-03-19T23:03:58.922Z,100728.11
2018-03-19T23:06:24.998Z,100726.08
2018-03-19T23:08:51.046Z,100730.31
2018-03-19T23:11:17.223Z,100725.32
2018-03-19T23:13:43.295Z,100723.42
2018-03-19T23:16:09.334Z,100720.81
2018-03-19T23:18:35.358Z,100719.31
2018-03-19T23:21:01.458Z,100723.60
2018-03-19T23:23:27.505Z,100711.86
2018-03-19T23:25:53.559Z,100718.05
2018-03-19T23:28:19.588Z,100719.48
2018-03-19T23:30:45.644Z,100708.63
2018-03-19T23:33:11.721Z,100709.76
2018-03-19T23:35:37.748Z,100698.28
2018-03-19T23:38:03.818Z,100702.84
2018-03-19T23:40:29.959Z,100701.33
2018-03-19T23:42:56.070Z,100696.59
2018-03-19T23:45:22.133Z,100703.64
2018-03-19T23:47:48.321Z,100696.11
2018-03-19T23:50:14.341Z,100684.80
2018-03-19T23:52:40.363Z,100680.32
2018-03-19T23:55:06.489Z,100675.41
2018-03-19T23:57:32.727Z,100673.95
2018-03-19T23:59:58.782Z,100670.20
